Time;durP1;ratioP1;P1;durP2;ratioP2;P2;SDS_P1;SDS_P2;PMS_P1;PMS_P2;Temp;Humidity;BMP_temperature;BMP_pressure;BME280_temperature;BME280_humidity;BME280_pressure;Samples;Min_cycle;Max_cycle;Signal;HPM_P1;HPM_P2
2022/01/05 00:34:03;;;;;;;4.05;2.92;;;5.90;99.90;;;;;;7426581;19;20318;-81
2022/01/05 00:36:31;;;;;;;2.90;2.60;;;5.90;99.90;;;;;;7412629;19;20308;-82
2022/01/05 00:39:03;;;;;;;3.92;2.80;;;6.00;99.90;;;;;;7413426;19;20360;-81
2022/01/05 00:41:31;;;;;;;3.00;2.75;;;6.00;99.90;;;;;;7408098;19;20327;-81
2022/01/05 01:16:16;;;;;;;3.20;2.90;;;5.80;99.90;;;;;;7427810;19;20305;-80
2022/01/05 01:19:07;;;;;;;2.90;2.70;;;5.70;99.90;;;;;;7356513;19;20335;-79
2022/01/05 01:21:58;;;;;;;3.20;2.90;;;5.70;99.90;;;;;;7427473;19;20312;-80
2022/01/05 01:24:49;;;;;;;2.65;2.45;;;5.60;99.90;;;;;;7395311;19;20387;-81
2022/01/05 01:53:30;;;;;;;1.90;1.80;;;5.80;99.90;;;;;;7350698;19;20360;-81
2022/01/05 02:41:39;;;;;;;2.57;2.20;;;5.70;99.90;;;;;;7407334;19;20344;-81
2022/01/05 02:52:53;;;;;;;3.08;2.70;;;5.70;99.90;;;;;;7349506;19;20370;-81
2022/01/05 03:13:37;;;;;;;3.85;3.55;;;5.60;99.90;;;;;;7394469;19;20368;-81
2022/01/05 03:33:42;;;;;;;3.67;3.08;;;5.50;99.90;;;;;;7361933;19;20362;-81
2022/01/05 03:38:53;;;;;;;4.65;4.03;;;5.50;99.90;;;;;;7406846;19;20344;-83
2022/01/05 03:41:24;;;;;;;4.03;3.65;;;5.50;99.90;;;;;;7350979;19;20336;-84
2022/01/05 07:56:38;;;;;;;1.20;1.10;;;2.10;99.90;;;;;;7341154;19;20423;-82
2022/01/05 08:02:32;;;;;;;2.88;1.17;;;2.10;99.90;;;;;;7297659;19;21085;31
2022/01/05 08:10:50;;;;;;;2.45;2.25;;;2.10;99.90;;;;;;7333196;19;20353;-81
2022/01/05 08:13:16;;;;;;;3.30;2.63;;;2.10;99.90;;;;;;7396907;19;20313;-81
2022/01/05 08:15:41;;;;;;;3.45;2.30;;;2.00;99.90;;;;;;7399387;19;20301;-82
2022/01/05 08:18:07;;;;;;;2.20;2.00;;;2.00;99.90;;;;;;7401674;19;20385;-84
2022/01/05 08:21:12;;;;;;;1.73;1.63;;;2.10;99.90;;;;;;7412947;19;20352;-87
2022/01/05 08:24:12;;;;;;;2.85;2.05;;;2.00;99.90;;;;;;7370357;19;20344;-81
2022/01/05 08:26:38;;;;;;;1.20;1.10;;;2.00;99.90;;;;;;7390613;19;20316;-82
2022/01/05 08:29:04;;;;;;;2.22;1.30;;;2.10;99.90;;;;;;7387535;19;20332;-80
2022/01/05 08:31:29;;;;;;;1.30;1.20;;;2.10;99.90;;;;;;7392018;19;20312;-80
2022/01/05 08:33:56;;;;;;;1.48;1.33;;;2.10;99.90;;;;;;7371262;19;20330;-81
2022/01/05 08:36:23;;;;;;;1.40;1.30;;;2.10;99.90;;;;;;7398949;19;20310;-82
2022/01/05 08:38:49;;;;;;;2.67;1.33;;;2.00;99.90;;;;;;7391539;19;20299;-81
2022/01/05 08:50:59;;;;;;;3.00;1.38;;;1.90;99.90;;;;;;7378178;19;20356;-82
2022/01/05 08:53:29;;;;;;;1.52;1.42;;;1.90;99.90;;;;;;7291539;19;2004437;-84
2022/01/05 08:55:55;;;;;;;2.50;1.58;;;1.90;99.90;;;;;;7370701;19;20324;-80
2022/01/05 08:58:22;;;;;;;1.60;1.45;;;1.90;99.90;;;;;;7407431;19;20420;-85
2022/01/05 09:00:51;;;;;;;1.92;1.52;;;1.90;99.90;;;;;;7410829;19;20325;-81
2022/01/05 09:12:56;;;;;;;2.88;1.55;;;2.00;99.90;;;;;;7373222;19;20383;-84
2022/01/05 09:16:08;;;;;;;2.97;1.80;;;2.00;99.90;;;;;;7393920;19;20385;-82
2022/01/05 09:18:34;;;;;;;1.60;1.50;;;2.10;99.90;;;;;;7411231;19;20304;-84
2022/01/05 09:21:01;;;;;;;3.78;1.50;;;2.10;99.90;;;;;;7414605;19;20325;-85
2022/01/05 09:23:27;;;;;;;1.90;1.30;;;2.10;99.90;;;;;;7404613;19;20329;-86
2022/01/05 09:31:41;;;;;;;0.90;0.90;;;2.20;99.90;;;;;;7385608;19;20349;-80
2022/01/05 09:34:15;;;;;;;1.35;1.15;;;2.20;99.90;;;;;;7377340;19;20342;-80
2022/01/05 09:36:59;;;;;;;1.93;1.40;;;2.20;99.90;;;;;;7383520;19;20317;-79
2022/01/05 09:42:36;;;;;;;1.30;1.20;;;2.20;99.90;;;;;;7232339;19;2004447;-82
2022/01/05 09:45:38;;;;;;;1.52;1.30;;;2.30;99.90;;;;;;7378122;19;20324;-76
2022/01/05 09:48:54;;;;;;;2.30;1.55;;;2.30;99.90;;;;;;7248845;19;2004604;-79
2022/01/05 09:51:32;;;;;;;5.22;2.75;;;2.30;99.90;;;;;;7253167;19;2004409;-77
2022/01/05 09:54:13;;;;;;;7.80;5.72;;;2.30;99.90;;;;;;7368344;19;20332;-81
2022/01/05 09:56:52;;;;;;;3.20;2.03;;;2.20;99.90;;;;;;7391547;19;20332;-77
2022/01/05 09:59:47;;;;;;;2.83;2.50;;;2.40;99.90;;;;;;7345076;19;20320;-77
2022/01/05 10:02:49;;;;;;;1.30;1.20;;;2.40;99.90;;;;;;7276006;19;2004417;-77
2022/01/05 10:08:53;;;;;;;1.17;1.13;;;2.40;99.90;;;;;;7403881;19;20316;-83
2022/01/05 10:11:22;;;;;;;2.25;1.45;;;2.40;99.90;;;;;;7405436;19;20321;-81
2022/01/05 10:13:54;;;;;;;1.30;1.20;;;2.50;99.90;;;;;;7331963;19;20317;-81
2022/01/05 10:17:09;;;;;;;1.30;1.20;;;2.20;99.90;;;;;;7330272;19;20293;-82
2022/01/05 10:20:43;;;;;;;2.25;1.40;;;2.30;99.90;;;;;;7071523;19;2004466;-82
2022/01/05 10:23:09;;;;;;;2.25;1.10;;;2.30;99.90;;;;;;7256658;19;20311;-82
2022/01/05 10:25:41;;;;;;;1.33;1.23;;;2.40;99.90;;;;;;7347128;19;20995;-82
2022/01/05 10:28:07;;;;;;;2.25;1.30;;;2.40;99.90;;;;;;7400778;19;20363;-84
2022/01/05 10:30:34;;;;;;;1.60;1.50;;;2.20;99.90;;;;;;7399275;19;20368;-81
2022/01/05 10:32:59;;;;;;;3.05;1.73;;;2.40;99.90;;;;;;7401776;19;20308;-82
2022/01/05 10:35:27;;;;;;;1.60;1.50;;;2.30;99.90;;;;;;7399926;19;20404;-82
2022/01/05 10:38:08;;;;;;;2.30;2.10;;;2.50;99.90;;;;;;7399306;19;20333;-81
2022/01/05 10:40:38;;;;;;;1.88;1.67;;;2.50;99.90;;;;;;7384445;19;21332;-84
2022/01/05 10:43:08;;;;;;;2.40;1.63;;;2.50;99.90;;;;;;7404571;19;20345;-82
2022/01/05 10:45:47;;;;;;;1.90;1.58;;;2.50;99.90;;;;;;7408448;19;20309;-80
2022/01/05 10:48:18;;;;;;;1.65;1.50;;;2.60;99.90;;;;;;7408024;19;20305;-82
2022/01/05 10:51:25;;;;;;;1.52;1.42;;;2.70;99.90;;;;;;7409451;19;20339;-80
2022/01/05 11:05:13;;;;;;;2.72;1.48;;;2.90;99.90;;;;;;7350979;19;20367;-81
2022/01/05 11:22:55;;;;;;;3.70;1.90;;;3.40;99.90;;;;;;7366534;19;20376;-76
2022/01/05 11:32:10;;;;;;;4.00;2.38;;;3.40;99.90;;;;;;7382315;19;20345;-84
2022/01/05 11:34:37;;;;;;;2.42;1.92;;;3.50;99.90;;;;;;7402955;19;20325;-81
2022/01/05 11:37:08;;;;;;;4.82;2.55;;;3.60;99.90;;;;;;7342228;19;20333;-77
2022/01/05 11:39:55;;;;;;;4.78;1.90;;;3.60;99.90;;;;;;7340415;19;20308;-79
2022/01/05 11:42:35;;;;;;;1.73;1.63;;;3.50;99.90;;;;;;7397264;19;20340;-80
2022/01/05 11:45:01;;;;;;;2.72;1.90;;;3.50;99.90;;;;;;7412684;19;20339;-79
2022/01/05 11:47:36;;;;;;;2.53;1.90;;;3.50;99.90;;;;;;7400784;19;20364;-79
2022/01/05 11:50:36;;;;;;;3.50;1.85;;;3.50;99.90;;;;;;7402515;19;20312;-81
2022/01/05 11:53:07;;;;;;;2.47;1.58;;;3.70;99.90;;;;;;7318189;19;2004442;-81
2022/01/05 11:56:38;;;;;;;2.88;2.00;;;3.70;99.90;;;;;;7396629;19;20352;-77
2022/01/05 11:59:48;;;;;;;1.98;1.73;;;3.80;99.90;;;;;;7357792;19;20372;-80
2022/01/05 12:06:33;;;;;;;3.25;1.90;;;3.80;99.90;;;;;;7196678;19;2004320;-79
2022/01/05 12:09:41;;;;;;;2.83;1.80;;;3.80;99.90;;;;;;7266271;19;2004065;-79
2022/01/05 12:12:24;;;;;;;5.90;2.25;;;4.00;99.90;;;;;;7418777;19;20320;-80
2022/01/05 12:14:50;;;;;;;2.85;2.05;;;3.90;99.90;;;;;;7383318;19;20312;-80
2022/01/05 12:17:36;;;;;;;2.72;1.85;;;4.10;99.90;;;;;;7247672;19;2004372;-80
2022/01/05 12:20:12;;;;;;;5.15;2.20;;;4.00;99.90;;;;;;7298014;19;2004280;-81
2022/01/05 12:22:46;;;;;;;2.83;2.15;;;4.10;99.90;;;;;;7403169;19;20319;-82
2022/01/05 12:25:45;;;;;;;4.18;1.88;;;4.20;99.90;;;;;;7400147;19;20321;-81
2022/01/05 12:29:00;;;;;;;2.40;1.92;;;4.10;99.90;;;;;;7312323;19;2004238;-77
2022/01/05 12:35:55;;;;;;;1.63;1.52;;;4.00;99.90;;;;;;7291615;19;2004403;-80
2022/01/05 12:42:28;;;;;;;3.88;1.98;;;3.80;99.90;;;;;;7270612;19;2003931;-81
2022/01/05 12:46:13;;;;;;;2.50;1.88;;;4.10;99.90;;;;;;7202760;19;2004208;-82
2022/01/05 12:49:04;;;;;;;3.05;1.85;;;4.00;99.90;;;;;;7374519;19;20333;-82
2022/01/05 12:51:47;;;;;;;5.13;2.03;;;4.10;99.90;;;;;;7418463;19;20309;-79
2022/01/05 12:54:42;;;;;;;3.25;2.13;;;4.10;99.90;;;;;;7411993;19;20332;-79
2022/01/05 12:57:16;;;;;;;2.20;1.80;;;4.20;99.90;;;;;;7422004;19;20320;-80
2022/01/05 13:00:19;;;;;;;3.30;1.73;;;4.30;99.90;;;;;;7394063;19;20345;-79
2022/01/05 13:02:52;;;;;;;2.45;1.77;;;4.30;99.90;;;;;;7267352;19;2004416;-79
2022/01/05 13:05:30;;;;;;;1.83;1.48;;;4.40;99.90;;;;;;7371734;19;20347;-80
2022/01/05 13:08:27;;;;;;;3.83;2.13;;;4.30;99.90;;;;;;7371376;19;20345;-79
2022/01/05 13:13:51;;;;;;;2.22;1.70;;;4.30;99.90;;;;;;7299041;19;2005352;-79
2022/01/05 13:16:27;;;;;;;4.13;1.80;;;4.20;99.90;;;;;;7346628;19;20327;-81
2022/01/05 13:19:34;;;;;;;5.85;2.10;;;4.10;99.90;;;;;;7378344;19;20352;-79
2022/01/05 13:32:10;;;;;;;2.05;1.73;;;3.80;99.90;;;;;;7431006;19;20333;-79
2022/01/05 13:35:44;;;;;;;2.78;1.67;;;4.00;99.90;;;;;;7428140;19;20335;-80
2022/01/05 13:38:53;;;;;;;1.70;1.60;;;3.90;99.90;;;;;;7428682;19;20347;-77
2022/01/05 13:45:18;;;;;;;2.33;1.80;;;3.90;99.90;;;;;;7437107;19;20351;-78
2022/01/05 14:12:31;;;;;;;4.13;3.75;;;4.00;99.90;;;;;;7372800;19;20340;-79
2022/01/05 14:54:17;;;;;;;5.30;1.90;;;4.10;99.90;;;;;;7335063;19;20317;-83
2022/01/05 15:18:14;;;;;;;2.90;1.95;;;3.80;99.90;;;;;;7370573;19;20340;31
2022/01/05 15:23:54;;;;;;;2.63;1.70;;;3.90;99.90;;;;;;7312932;19;20319;-77
2022/01/05 15:29:22;;;;;;;2.35;2.05;;;3.80;99.90;;;;;;7398918;19;20376;-81
2022/01/05 15:32:11;;;;;;;4.60;1.85;;;3.80;99.90;;;;;;7367690;19;20364;-82
2022/01/05 15:40:53;;;;;;;1.60;1.50;;;3.70;99.90;;;;;;7392415;19;20313;-78
2022/01/05 15:46:11;;;;;;;2.00;1.70;;;3.50;99.90;;;;;;7415077;19;20666;-83
2022/01/05 15:48:37;;;;;;;3.05;1.45;;;3.50;99.90;;;;;;7416746;19;20317;-83
2022/01/05 15:51:03;;;;;;;3.00;1.65;;;3.50;99.90;;;;;;7412567;19;20305;-87
2022/01/05 15:53:31;;;;;;;1.52;1.38;;;3.60;99.90;;;;;;7415575;19;20321;-82
2022/01/05 15:56:09;;;;;;;3.40;1.57;;;3.40;99.90;;;;;;7409770;19;20329;-82
2022/01/05 16:01:27;;;;;;;2.08;1.63;;;3.40;99.90;;;;;;7413243;19;20316;-81
2022/01/05 16:04:01;;;;;;;2.75;1.63;;;3.30;99.90;;;;;;7416043;19;20328;-84
2022/01/05 16:06:27;;;;;;;1.83;1.47;;;3.30;99.90;;;;;;7391399;19;20324;-84
2022/01/05 16:08:53;;;;;;;1.80;1.67;;;3.30;99.90;;;;;;7415350;19;20350;-81
2022/01/05 16:11:20;;;;;;;3.00;1.80;;;3.20;99.90;;;;;;7403981;19;20325;-83
2022/01/05 16:13:47;;;;;;;5.38;1.50;;;3.30;99.90;;;;;;7407709;19;20337;-81
2022/01/05 16:16:13;;;;;;;3.15;1.75;;;3.10;99.90;;;;;;7411328;19;20364;-82
2022/01/05 16:18:39;;;;;;;2.97;1.63;;;3.10;99.90;;;;;;7415079;19;20352;-82
2022/01/05 16:21:10;;;;;;;2.23;1.70;;;3.00;99.90;;;;;;7408307;19;20391;-82
2022/01/05 16:23:37;;;;;;;2.45;1.60;;;3.00;99.90;;;;;;7415117;19;20376;-81
2022/01/05 16:26:03;;;;;;;4.65;1.65;;;2.90;99.90;;;;;;7413118;19;20319;-83
2022/01/05 16:28:29;;;;;;;1.93;1.73;;;2.90;99.90;;;;;;7410570;19;20384;-83
2022/01/05 16:30:54;;;;;;;4.75;2.10;;;2.90;99.90;;;;;;7399341;19;20380;-82
2022/01/05 16:33:21;;;;;;;2.00;1.85;;;2.90;99.90;;;;;;7388013;19;20336;-85
2022/01/05 16:35:47;;;;;;;2.47;2.25;;;2.90;99.90;;;;;;7413512;19;20694;-83
2022/01/05 16:38:13;;;;;;;2.67;1.90;;;2.90;99.90;;;;;;7416481;19;20316;-85
2022/01/05 16:43:34;;;;;;;2.33;2.00;;;2.80;99.90;;;;;;7394223;19;20352;-88
2022/01/05 16:52:06;;;;;;;2.57;2.10;;;2.90;99.90;;;;;;7326491;19;20328;-77
2022/01/05 16:55:14;;;;;;;16.80;7.75;;;2.90;99.90;;;;;;7332752;19;20336;-81
2022/01/05 17:04:44;;;;;;;2.00;1.90;;;2.80;99.90;;;;;;7377586;19;20400;-77
2022/01/05 17:07:17;;;;;;;3.07;2.00;;;2.90;99.90;;;;;;7365241;19;20329;-81
2022/01/05 17:10:02;;;;;;;1.80;1.60;;;2.80;99.90;;;;;;7403187;19;20328;-77
2022/01/05 17:12:31;;;;;;;2.60;2.22;;;2.80;99.90;;;;;;7371467;19;20305;-78
2022/01/05 17:15:11;;;;;;;1.70;1.60;;;2.80;99.90;;;;;;7415873;19;20328;-78
2022/01/05 17:18:15;;;;;;;2.08;1.75;;;2.90;99.90;;;;;;7195170;19;2004460;-81
2022/01/05 17:21:31;;;;;;;3.03;1.88;;;2.90;99.90;;;;;;7367517;19;20328;-80
2022/01/05 17:28:34;;;;;;;3.60;2.78;;;2.90;99.90;;;;;;7368712;19;20368;-80
2022/01/05 17:31:59;;;;;;;1.98;1.88;;;2.80;99.90;;;;;;7234511;19;2004400;-80
2022/01/05 17:34:47;;;;;;;1.83;1.73;;;2.90;99.90;;;;;;7219754;19;2004158;-78
2022/01/05 17:37:46;;;;;;;1.90;1.73;;;2.90;99.90;;;;;;7344043;19;20332;-78
2022/01/05 17:40:15;;;;;;;3.30;1.63;;;2.90;99.90;;;;;;7366096;19;20328;-77
2022/01/05 17:42:43;;;;;;;1.70;1.60;;;2.90;99.90;;;;;;7355204;19;20402;-79
2022/01/05 17:45:12;;;;;;;1.70;1.60;;;2.90;99.90;;;;;;7355596;19;20728;-79
2022/01/05 17:47:41;;;;;;;3.10;1.70;;;3.00;99.90;;;;;;7350792;19;20978;-77
2022/01/05 17:50:17;;;;;;;4.38;1.65;;;2.80;99.90;;;;;;7372235;19;20377;-79
2022/01/05 17:52:55;;;;;;;2.10;1.90;;;2.70;99.90;;;;;;7346110;19;20379;-77
2022/01/05 17:55:52;;;;;;;1.83;1.73;;;2.60;99.90;;;;;;7245624;19;2004459;-79
2022/01/05 17:58:19;;;;;;;2.00;1.80;;;2.70;99.90;;;;;;7320740;19;20350;-78
2022/01/05 18:00:58;;;;;;;1.70;1.60;;;2.70;99.90;;;;;;7343000;19;20357;-79
2022/01/05 18:03:38;;;;;;;1.57;1.47;;;2.70;99.90;;;;;;7392456;19;20353;-78
2022/01/05 18:06:15;;;;;;;2.85;1.55;;;2.70;99.90;;;;;;7351284;19;20355;-80
2022/01/05 18:08:50;;;;;;;2.72;1.70;;;2.80;99.90;;;;;;7355771;19;20340;-78
2022/01/05 18:11:29;;;;;;;1.60;1.50;;;2.90;99.90;;;;;;7390778;19;20340;-77
2022/01/05 18:14:43;;;;;;;1.80;1.70;;;2.90;99.90;;;;;;7309095;19;20336;-79
2022/01/05 18:18:02;;;;;;;3.05;1.70;;;2.90;99.90;;;;;;7204795;19;2004263;-77
2022/01/05 18:21:24;;;;;;;1.75;1.65;;;2.90;99.90;;;;;;7192493;19;20348;-79
2022/01/05 18:24:55;;;;;;;2.50;1.70;;;3.00;99.90;;;;;;7140716;19;2004432;-78
2022/01/05 18:28:04;;;;;;;1.63;1.52;;;3.10;99.90;;;;;;7281221;19;2004443;-80
2022/01/05 18:30:52;;;;;;;1.50;1.40;;;3.20;99.90;;;;;;7235794;19;2004403;-79
2022/01/05 18:33:21;;;;;;;2.75;2.13;;;3.20;99.90;;;;;;7325422;19;20332;-81
2022/01/05 18:36:01;;;;;;;1.80;1.70;;;3.30;99.90;;;;;;7317222;19;20321;-79
2022/01/05 18:39:01;;;;;;;3.07;2.07;;;3.30;99.90;;;;;;7400731;19;20354;-78
2022/01/05 18:41:37;;;;;;;1.58;1.48;;;3.30;99.90;;;;;;7248075;19;2004425;-79
2022/01/05 18:44:05;;;;;;;2.55;1.80;;;3.40;99.90;;;;;;7348234;19;20325;-80
2022/01/05 18:46:50;;;;;;;2.13;1.70;;;3.20;99.90;;;;;;7221606;19;2004520;-77
2022/01/05 18:49:24;;;;;;;3.10;1.90;;;3.30;99.90;;;;;;7340334;19;20308;-78
2022/01/05 18:51:50;;;;;;;2.88;2.10;;;3.30;99.90;;;;;;7321512;19;20914;-78
2022/01/05 18:54:21;;;;;;;3.75;2.17;;;3.40;99.90;;;;;;7373771;19;20325;-79
2022/01/05 18:57:02;;;;;;;2.13;1.83;;;3.30;99.90;;;;;;7325306;19;20377;-79
2022/01/05 18:59:35;;;;;;;2.83;1.60;;;3.30;99.90;;;;;;7364696;19;20773;-79
2022/01/05 19:02:14;;;;;;;1.75;1.65;;;3.20;99.90;;;;;;7390635;19;20320;-78
2022/01/05 19:04:40;;;;;;;3.95;2.00;;;3.20;99.90;;;;;;7266897;19;2009440;-78
2022/01/05 19:07:06;;;;;;;1.70;1.60;;;3.20;99.90;;;;;;7385301;19;20794;-77
2022/01/05 19:09:35;;;;;;;1.70;1.60;;;3.30;99.90;;;;;;7387368;19;20704;-77
2022/01/05 19:12:01;;;;;;;1.60;1.50;;;3.40;99.90;;;;;;7346164;19;20399;-79
2022/01/05 19:14:40;;;;;;;1.88;1.70;;;3.50;99.90;;;;;;7378487;19;20431;-78
2022/01/05 19:17:17;;;;;;;1.70;1.60;;;3.50;99.90;;;;;;7353906;19;20356;-78
2022/01/05 19:19:58;;;;;;;2.35;1.50;;;3.30;99.90;;;;;;7273030;19;2004371;-78
2022/01/05 19:22:33;;;;;;;1.60;1.50;;;3.50;99.90;;;;;;7321640;19;20324;-78
2022/01/05 19:25:03;;;;;;;2.00;1.60;;;3.60;99.90;;;;;;7359940;19;20320;-78
2022/01/05 19:27:38;;;;;;;2.40;1.88;;;3.50;99.90;;;;;;7338198;19;20385;-79
2022/01/05 19:30:12;;;;;;;1.70;1.60;;;3.60;99.90;;;;;;7340477;19;20321;-77
2022/01/05 19:32:41;;;;;;;1.92;1.83;;;3.60;99.90;;;;;;7386395;19;20352;-77
2022/01/05 19:35:10;;;;;;;2.88;2.17;;;3.60;99.90;;;;;;7360920;19;20353;-79
2022/01/05 19:37:38;;;;;;;1.60;1.50;;;3.60;99.90;;;;;;7360575;19;20915;-78
2022/01/05 19:40:12;;;;;;;3.28;1.73;;;3.60;99.90;;;;;;7357028;19;20359;-78
2022/01/05 19:42:46;;;;;;;1.88;1.77;;;3.60;99.90;;;;;;7309263;19;20320;-78
2022/01/05 19:45:28;;;;;;;2.00;1.80;;;3.60;99.90;;;;;;7346270;19;20755;-78
2022/01/05 19:47:59;;;;;;;1.63;1.52;;;3.60;99.90;;;;;;7322619;19;20320;-78
2022/01/05 19:50:58;;;;;;;1.75;1.65;;;3.60;99.90;;;;;;7368468;19;20348;-78
2022/01/05 19:53:26;;;;;;;2.60;1.70;;;3.50;99.90;;;;;;7332637;19;20313;-78
2022/01/05 19:56:17;;;;;;;1.83;1.55;;;3.70;99.90;;;;;;7308634;19;20349;-78
2022/01/05 19:58:50;;;;;;;2.70;2.33;;;3.60;99.90;;;;;;7230043;19;2004857;-79
2022/01/05 20:01:40;;;;;;;1.63;1.52;;;3.60;99.90;;;;;;7270727;19;2004447;-78
2022/01/05 20:04:08;;;;;;;2.42;2.22;;;3.60;99.90;;;;;;7266451;19;2004443;-80
2022/01/05 20:06:48;;;;;;;3.10;1.70;;;3.70;99.90;;;;;;7357528;19;20345;-79
2022/01/05 20:09:14;;;;;;;2.42;1.77;;;3.80;99.90;;;;;;7262064;19;2004909;-78
2022/01/05 20:11:54;;;;;;;1.77;1.52;;;3.70;99.90;;;;;;7357295;19;20432;-77
2022/01/05 20:14:22;;;;;;;4.30;1.90;;;3.70;99.90;;;;;;7372337;19;20332;-80
2022/01/05 20:16:51;;;;;;;1.67;1.57;;;3.70;99.90;;;;;;7365268;19;20313;-78
2022/01/05 20:19:17;;;;;;;2.03;1.83;;;3.70;99.90;;;;;;7367207;19;20345;-79
2022/01/05 20:21:47;;;;;;;3.17;1.80;;;3.60;99.90;;;;;;7385788;19;20329;-78
2022/01/05 20:24:16;;;;;;;1.73;1.60;;;3.70;99.90;;;;;;7363613;19;20408;-78
2022/01/05 20:26:42;;;;;;;2.35;1.73;;;3.70;99.90;;;;;;7341134;19;20759;-79
2022/01/05 20:29:13;;;;;;;3.20;1.50;;;3.70;99.90;;;;;;7360703;19;20341;-79
2022/01/05 20:31:40;;;;;;;2.03;1.80;;;3.70;99.90;;;;;;7357171;19;20336;-78
2022/01/05 20:34:07;;;;;;;2.65;1.85;;;3.80;99.90;;;;;;7378376;19;20873;-78
2022/01/05 20:36:37;;;;;;;1.67;1.58;;;3.80;99.90;;;;;;7383690;19;21249;-79
2022/01/05 20:39:07;;;;;;;1.65;1.55;;;3.80;99.90;;;;;;7371556;19;20359;-79
2022/01/05 20:41:52;;;;;;;3.00;1.50;;;3.70;99.90;;;;;;7320844;19;20355;-78
2022/01/05 20:44:29;;;;;;;2.28;1.70;;;3.70;99.90;;;;;;7364467;19;20302;-78
2022/01/05 20:46:56;;;;;;;2.33;1.80;;;3.70;99.90;;;;;;7370579;19;20336;-78
2022/01/05 20:49:27;;;;;;;1.77;1.67;;;3.70;99.90;;;;;;7351997;19;20388;-79
2022/01/05 20:51:59;;;;;;;1.90;1.80;;;3.70;99.90;;;;;;7373123;19;20851;-79
2022/01/05 20:54:51;;;;;;;1.60;1.50;;;3.70;99.90;;;;;;7385469;19;20336;-79
2022/01/05 20:57:26;;;;;;;1.70;1.60;;;3.70;99.90;;;;;;7372043;19;20348;-78
2022/01/05 20:59:56;;;;;;;3.10;1.75;;;3.50;99.90;;;;;;7361602;19;20356;-78
2022/01/05 21:02:27;;;;;;;1.80;1.70;;;3.70;99.90;;;;;;7387560;19;20639;-79
2022/01/05 21:04:55;;;;;;;2.53;1.80;;;3.60;99.90;;;;;;7388002;19;20339;-79
2022/01/05 21:07:26;;;;;;;2.70;1.75;;;3.70;99.90;;;;;;7343294;19;20340;-79
2022/01/05 21:09:53;;;;;;;2.20;1.85;;;3.60;99.90;;;;;;7316778;19;20354;-79
2022/01/05 21:12:25;;;;;;;1.97;1.73;;;3.70;99.90;;;;;;7386917;19;20317;-79
2022/01/05 21:15:04;;;;;;;3.10;1.58;;;3.70;99.90;;;;;;7384733;19;20887;-80
2022/01/05 21:18:01;;;;;;;1.70;1.60;;;3.60;99.90;;;;;;7371311;19;20369;-79
2022/01/05 21:20:41;;;;;;;2.05;1.70;;;3.80;99.90;;;;;;7257703;19;2004907;-79
2022/01/05 21:23:12;;;;;;;1.92;1.50;;;3.70;99.90;;;;;;7387431;19;20324;-78
2022/01/05 21:25:46;;;;;;;1.87;1.60;;;3.80;99.90;;;;;;7383183;19;20345;-79
2022/01/05 21:28:15;;;;;;;1.83;1.73;;;3.80;99.90;;;;;;7338693;19;20340;-78
2022/01/05 21:30:50;;;;;;;1.55;1.45;;;3.80;99.90;;;;;;7372727;19;20319;-79
2022/01/05 21:33:23;;;;;;;1.70;1.60;;;3.80;99.90;;;;;;7288004;19;2004508;-79
2022/01/05 21:35:52;;;;;;;1.60;1.50;;;3.80;99.90;;;;;;7393967;19;20346;-78
2022/01/05 21:38:21;;;;;;;1.70;1.60;;;3.90;99.90;;;;;;7360063;19;20352;-79
2022/01/05 21:40:50;;;;;;;1.58;1.48;;;3.80;99.90;;;;;;7390978;19;20431;-78
2022/01/05 21:43:17;;;;;;;1.83;1.73;;;3.80;99.90;;;;;;7367703;19;20349;-78
2022/01/05 21:45:45;;;;;;;1.83;1.73;;;3.80;99.90;;;;;;7389616;19;20786;-78
2022/01/05 21:48:13;;;;;;;1.60;1.50;;;3.80;99.90;;;;;;7372313;19;20324;-78
2022/01/05 21:50:40;;;;;;;1.92;1.60;;;3.80;99.90;;;;;;7389086;19;20328;-79
2022/01/05 21:53:06;;;;;;;1.20;1.20;;;3.80;99.90;;;;;;7392025;19;20332;-78
2022/01/05 21:55:48;;;;;;;1.50;1.40;;;3.70;99.90;;;;;;7391977;19;20344;-79
2022/01/05 21:58:16;;;;;;;3.08;1.50;;;3.70;99.90;;;;;;7352483;19;20324;-78
2022/01/05 22:00:44;;;;;;;1.90;1.80;;;3.70;99.90;;;;;;7376528;19;20360;-78
2022/01/05 22:03:10;;;;;;;1.70;1.60;;;3.70;99.90;;;;;;7396117;19;20340;-79
2022/01/05 22:05:36;;;;;;;1.27;1.20;;;3.80;99.90;;;;;;7392489;19;20396;-79
2022/01/05 22:08:07;;;;;;;2.20;1.52;;;3.80;99.90;;;;;;7373068;19;20304;-79
2022/01/05 22:10:33;;;;;;;1.60;1.50;;;3.60;99.90;;;;;;7396650;19;20895;-78
2022/01/05 22:12:59;;;;;;;1.40;1.30;;;3.70;99.90;;;;;;7393466;19;20375;-79
2022/01/05 22:15:25;;;;;;;3.05;1.98;;;3.70;99.90;;;;;;7389830;19;20344;-78
2022/01/05 22:17:53;;;;;;;1.80;1.65;;;3.60;99.90;;;;;;7393119;19;20665;-78
2022/01/05 22:20:21;;;;;;;1.60;1.50;;;3.60;99.90;;;;;;7376546;19;21224;-78
2022/01/05 22:22:50;;;;;;;1.80;1.70;;;3.60;99.90;;;;;;7390174;19;20325;-79
2022/01/05 22:25:18;;;;;;;3.17;1.70;;;3.60;99.90;;;;;;7388810;19;20305;-79
2022/01/05 22:27:45;;;;;;;2.90;1.70;;;3.50;99.90;;;;;;7395647;19;20701;-79
2022/01/05 22:30:12;;;;;;;1.90;1.70;;;3.60;99.90;;;;;;7393098;19;20321;-78
2022/01/05 22:32:41;;;;;;;3.50;1.90;;;3.60;99.90;;;;;;7374297;19;20345;-78
2022/01/05 22:35:08;;;;;;;2.60;1.87;;;3.60;99.90;;;;;;7392931;19;20341;-78
2022/01/05 22:37:36;;;;;;;1.63;1.52;;;3.60;99.90;;;;;;7374180;19;20384;-78
2022/01/05 22:40:05;;;;;;;1.67;1.58;;;3.70;99.90;;;;;;7370342;19;20720;-78
2022/01/05 22:42:34;;;;;;;2.33;1.85;;;3.70;99.90;;;;;;7394208;19;20655;-78
2022/01/05 22:45:04;;;;;;;1.58;1.48;;;3.70;99.90;;;;;;7390587;19;20317;-79
2022/01/05 22:47:31;;;;;;;2.00;1.50;;;3.70;99.90;;;;;;7375061;19;20338;-80
2022/01/05 22:50:01;;;;;;;1.30;1.20;;;3.70;99.90;;;;;;7376330;19;20317;-80
2022/01/05 22:52:33;;;;;;;1.33;1.23;;;3.70;99.90;;;;;;7391038;19;20873;-78
2022/01/05 22:55:10;;;;;;;3.00;1.67;;;3.70;99.90;;;;;;7388885;19;20359;-78
2022/01/05 22:57:41;;;;;;;1.80;1.50;;;3.60;99.90;;;;;;7389595;19;20356;-77
2022/01/05 23:00:22;;;;;;;1.50;1.40;;;3.50;99.90;;;;;;7392092;19;20337;-79
2022/01/05 23:02:50;;;;;;;3.90;1.60;;;3.50;99.90;;;;;;7383208;19;20332;-80
2022/01/05 23:05:17;;;;;;;1.98;1.50;;;3.50;99.90;;;;;;7391054;19;20360;-80
2022/01/05 23:07:44;;;;;;;3.20;1.65;;;3.50;99.90;;;;;;7370942;19;20366;-79
2022/01/05 23:10:11;;;;;;;1.73;1.63;;;3.50;99.90;;;;;;7392745;19;20337;-79
2022/01/05 23:12:36;;;;;;;1.52;1.42;;;3.50;99.90;;;;;;7371490;19;20324;-79
2022/01/05 23:15:02;;;;;;;1.90;1.45;;;3.40;99.90;;;;;;7393295;19;20665;-83
2022/01/05 23:17:29;;;;;;;1.83;1.40;;;3.50;99.90;;;;;;7365797;19;20870;-77
2022/01/05 23:20:05;;;;;;;1.50;1.40;;;3.40;99.90;;;;;;7348165;19;20308;-79
2022/01/05 23:22:49;;;;;;;2.55;1.55;;;3.40;99.90;;;;;;7247994;19;2004448;-79
2022/01/05 23:25:21;;;;;;;1.67;1.42;;;3.40;99.90;;;;;;7350411;19;20676;-79
2022/01/05 23:27:52;;;;;;;1.40;1.30;;;3.30;99.90;;;;;;7391146;19;20341;-78
2022/01/05 23:30:22;;;;;;;1.80;1.10;;;3.30;99.90;;;;;;7291885;19;2004433;-79
2022/01/05 23:32:56;;;;;;;2.08;1.40;;;3.30;99.90;;;;;;7391800;19;20355;-79
2022/01/05 23:35:25;;;;;;;1.27;0.98;;;3.30;99.90;;;;;;7393479;19;20734;-79
2022/01/05 23:38:01;;;;;;;2.10;1.20;;;3.30;99.90;;;;;;7385274;19;20348;-83
2022/01/05 23:40:41;;;;;;;1.50;1.20;;;3.20;99.90;;;;;;7393333;19;20340;-78
2022/01/05 23:43:12;;;;;;;1.00;1.00;;;3.10;99.90;;;;;;7396014;19;20354;-79
2022/01/05 23:45:43;;;;;;;1.33;1.13;;;3.30;99.90;;;;;;7376968;19;20927;-79
2022/01/05 23:48:10;;;;;;;1.35;1.20;;;3.10;99.90;;;;;;7395253;19;20356;-78
2022/01/05 23:50:39;;;;;;;0.98;0.95;;;3.20;99.90;;;;;;7391350;19;20340;-79
2022/01/05 23:53:12;;;;;;;0.90;0.90;;;3.10;99.90;;;;;;7368611;19;20320;-78
2022/01/05 23:55:43;;;;;;;0.80;0.80;;;3.00;99.90;;;;;;7392509;19;20366;-79
2022/01/05 23:58:09;;;;;;;1.65;1.00;;;3.00;99.90;;;;;;7395304;19;20331;-77
